sensor_id;sensor_type;location;lat;lon;timestamp;P1;durP1;ratioP1;P2;durP2;ratioP2
3941;SDS011;1985;48.592;8.850;2022-12-11T00:01:24;18.03;;;6.20;;
3941;SDS011;1985;48.592;8.850;2022-12-11T00:03:50;18.00;;;7.17;;
3941;SDS011;1985;48.592;8.850;2022-12-11T00:06:16;21.37;;;6.30;;
3941;SDS011;1985;48.592;8.850;2022-12-11T00:08:44;14.63;;;5.10;;
3941;SDS011;1985;48.592;8.850;2022-12-11T00:11:10;13.93;;;4.75;;
3941;SDS011;1985;48.592;8.850;2022-12-11T00:13:38;15.80;;;5.25;;
3941;SDS011;1985;48.592;8.850;2022-12-11T00:16:03;14.30;;;4.90;;
3941;SDS011;1985;48.592;8.850;2022-12-11T00:18:29;15.30;;;4.90;;
3941;SDS011;1985;48.592;8.850;2022-12-11T00:20:58;19.13;;;5.47;;
3941;SDS011;1985;48.592;8.850;2022-12-11T00:23:28;14.88;;;5.63;;
3941;SDS011;1985;48.592;8.850;2022-12-11T00:25:54;15.98;;;5.70;;
3941;SDS011;1985;48.592;8.850;2022-12-11T00:28:20;14.17;;;4.60;;
3941;SDS011;1985;48.592;8.850;2022-12-11T00:30:46;14.35;;;5.00;;
3941;SDS011;1985;48.592;8.850;2022-12-11T00:33:12;15.80;;;5.00;;
3941;SDS011;1985;48.592;8.850;2022-12-11T00:35:42;13.18;;;4.38;;
3941;SDS011;1985;48.592;8.850;2022-12-11T00:38:16;10.95;;;3.70;;
3941;SDS011;1985;48.592;8.850;2022-12-11T00:40:44;12.10;;;3.80;;
3941;SDS011;1985;48.592;8.850;2022-12-11T00:43:09;15.32;;;3.88;;
3941;SDS011;1985;48.592;8.850;2022-12-11T00:45:36;12.45;;;3.45;;
3941;SDS011;1985;48.592;8.850;2022-12-11T00:48:04;12.20;;;3.80;;
3941;SDS011;1985;48.592;8.850;2022-12-11T00:50:31;13.50;;;4.00;;
3941;SDS011;1985;48.592;8.850;2022-12-11T00:52:57;15.02;;;4.70;;
3941;SDS011;1985;48.592;8.850;2022-12-11T00:55:23;14.57;;;4.23;;
3941;SDS011;1985;48.592;8.850;2022-12-11T00:57:52;13.32;;;4.45;;
3941;SDS011;1985;48.592;8.850;2022-12-11T01:00:18;12.70;;;4.10;;
3941;SDS011;1985;48.592;8.850;2022-12-11T01:02:43;14.23;;;4.40;;
3941;SDS011;1985;48.592;8.850;2022-12-11T01:05:09;12.87;;;4.30;;
3941;SDS011;1985;48.592;8.850;2022-12-11T01:07:35;13.55;;;3.88;;
3941;SDS011;1985;48.592;8.850;2022-12-11T01:10:01;13.65;;;4.40;;
3941;SDS011;1985;48.592;8.850;2022-12-11T01:12:46;13.40;;;4.00;;
3941;SDS011;1985;48.592;8.850;2022-12-11T01:15:11;12.77;;;4.00;;
3941;SDS011;1985;48.592;8.850;2022-12-11T01:17:37;14.27;;;4.80;;
3941;SDS011;1985;48.592;8.850;2022-12-11T01:20:03;14.63;;;5.00;;
3941;SDS011;1985;48.592;8.850;2022-12-11T01:22:30;13.57;;;4.50;;
3941;SDS011;1985;48.592;8.850;2022-12-11T01:24:56;17.88;;;5.63;;
3941;SDS011;1985;48.592;8.850;2022-12-11T01:27:21;17.63;;;6.20;;
3941;SDS011;1985;48.592;8.850;2022-12-11T01:29:47;17.15;;;6.18;;
3941;SDS011;1985;48.592;8.850;2022-12-11T01:32:13;16.30;;;4.95;;
3941;SDS011;1985;48.592;8.850;2022-12-11T01:34:39;16.88;;;5.60;;
3941;SDS011;1985;48.592;8.850;2022-12-11T01:37:05;22.92;;;8.55;;
3941;SDS011;1985;48.592;8.850;2022-12-11T01:39:30;19.88;;;7.80;;
3941;SDS011;1985;48.592;8.850;2022-12-11T01:41:56;18.90;;;7.60;;
3941;SDS011;1985;48.592;8.850;2022-12-11T01:46:48;16.25;;;6.60;;
3941;SDS011;1985;48.592;8.850;2022-12-11T01:49:14;20.48;;;6.97;;
3941;SDS011;1985;48.592;8.850;2022-12-11T01:54:23;18.70;;;6.10;;
3941;SDS011;1985;48.592;8.850;2022-12-11T01:56:52;19.52;;;6.60;;
3941;SDS011;1985;48.592;8.850;2022-12-11T01:59:21;16.30;;;5.80;;
3941;SDS011;1985;48.592;8.850;2022-12-11T02:02:01;17.52;;;5.60;;
3941;SDS011;1985;48.592;8.850;2022-12-11T02:04:30;17.90;;;6.35;;
3941;SDS011;1985;48.592;8.850;2022-12-11T02:06:58;17.27;;;6.15;;
3941;SDS011;1985;48.592;8.850;2022-12-11T02:09:27;16.37;;;6.53;;
3941;SDS011;1985;48.592;8.850;2022-12-11T02:17:03;18.92;;;6.78;;
3941;SDS011;1985;48.592;8.850;2022-12-11T02:34:03;16.13;;;5.95;;
3941;SDS011;1985;48.592;8.850;2022-12-11T02:36:37;17.48;;;6.20;;
3941;SDS011;1985;48.592;8.850;2022-12-11T02:39:08;16.35;;;6.00;;
3941;SDS011;1985;48.592;8.850;2022-12-11T02:41:38;15.63;;;5.93;;
3941;SDS011;1985;48.592;8.850;2022-12-11T02:44:06;16.38;;;6.20;;
3941;SDS011;1985;48.592;8.850;2022-12-11T02:46:36;18.13;;;6.00;;
3941;SDS011;1985;48.592;8.850;2022-12-11T02:49:03;17.40;;;6.00;;
3941;SDS011;1985;48.592;8.850;2022-12-11T02:51:32;16.80;;;5.95;;
3941;SDS011;1985;48.592;8.850;2022-12-11T02:54:01;18.85;;;5.85;;
3941;SDS011;1985;48.592;8.850;2022-12-11T02:56:32;18.70;;;6.13;;
3941;SDS011;1985;48.592;8.850;2022-12-11T02:59:30;19.10;;;6.37;;
3941;SDS011;1985;48.592;8.850;2022-12-11T03:02:00;20.35;;;6.30;;
3941;SDS011;1985;48.592;8.850;2022-12-11T03:04:27;18.55;;;6.85;;
3941;SDS011;1985;48.592;8.850;2022-12-11T03:06:54;21.42;;;8.23;;
3941;SDS011;1985;48.592;8.850;2022-12-11T03:09:24;18.20;;;6.40;;
3941;SDS011;1985;48.592;8.850;2022-12-11T03:11:51;16.97;;;5.50;;
3941;SDS011;1985;48.592;8.850;2022-12-11T03:14:16;15.03;;;5.37;;
3941;SDS011;1985;48.592;8.850;2022-12-11T03:16:51;16.33;;;6.40;;
3941;SDS011;1985;48.592;8.850;2022-12-11T03:24:38;15.85;;;5.47;;
3941;SDS011;1985;48.592;8.850;2022-12-11T03:27:22;20.75;;;6.80;;
3941;SDS011;1985;48.592;8.850;2022-12-11T03:30:04;17.98;;;6.30;;
3941;SDS011;1985;48.592;8.850;2022-12-11T03:32:41;19.42;;;6.85;;
3941;SDS011;1985;48.592;8.850;2022-12-11T03:37:57;19.43;;;7.00;;
3941;SDS011;1985;48.592;8.850;2022-12-11T03:40:27;17.42;;;5.93;;
3941;SDS011;1985;48.592;8.850;2022-12-11T03:42:57;17.23;;;5.82;;
3941;SDS011;1985;48.592;8.850;2022-12-11T03:45:24;17.07;;;6.40;;
3941;SDS011;1985;48.592;8.850;2022-12-11T03:47:52;16.00;;;5.95;;
3941;SDS011;1985;48.592;8.850;2022-12-11T03:50:19;15.57;;;5.10;;
3941;SDS011;1985;48.592;8.850;2022-12-11T03:52:48;15.63;;;6.22;;
3941;SDS011;1985;48.592;8.850;2022-12-11T03:55:16;13.98;;;4.63;;
3941;SDS011;1985;48.592;8.850;2022-12-11T03:57:45;16.17;;;5.90;;
3941;SDS011;1985;48.592;8.850;2022-12-11T04:00:12;14.85;;;5.50;;
3941;SDS011;1985;48.592;8.850;2022-12-11T04:02:40;16.40;;;6.20;;
3941;SDS011;1985;48.592;8.850;2022-12-11T04:05:07;15.30;;;5.40;;
3941;SDS011;1985;48.592;8.850;2022-12-11T04:07:33;14.98;;;4.40;;
3941;SDS011;1985;48.592;8.850;2022-12-11T04:09:59;14.30;;;4.53;;
3941;SDS011;1985;48.592;8.850;2022-12-11T04:12:25;14.38;;;4.60;;
3941;SDS011;1985;48.592;8.850;2022-12-11T04:14:50;13.65;;;4.95;;
3941;SDS011;1985;48.592;8.850;2022-12-11T04:17:29;19.15;;;6.32;;
3941;SDS011;1985;48.592;8.850;2022-12-11T04:20:14;16.25;;;5.70;;
3941;SDS011;1985;48.592;8.850;2022-12-11T04:22:58;16.67;;;5.85;;
3941;SDS011;1985;48.592;8.850;2022-12-11T04:25:42;16.48;;;5.95;;
3941;SDS011;1985;48.592;8.850;2022-12-11T04:28:07;15.20;;;5.20;;
3941;SDS011;1985;48.592;8.850;2022-12-11T04:30:33;14.82;;;4.65;;
3941;SDS011;1985;48.592;8.850;2022-12-11T04:32:59;16.10;;;5.40;;
3941;SDS011;1985;48.592;8.850;2022-12-11T04:35:24;14.33;;;4.50;;
3941;SDS011;1985;48.592;8.850;2022-12-11T04:37:51;14.93;;;5.53;;
3941;SDS011;1985;48.592;8.850;2022-12-11T04:40:17;17.42;;;6.57;;
3941;SDS011;1985;48.592;8.850;2022-12-11T04:42:44;17.02;;;5.80;;
3941;SDS011;1985;48.592;8.850;2022-12-11T04:45:10;16.27;;;6.20;;
3941;SDS011;1985;48.592;8.850;2022-12-11T04:47:36;20.42;;;6.50;;
3941;SDS011;1985;48.592;8.850;2022-12-11T04:50:04;17.30;;;6.30;;
3941;SDS011;1985;48.592;8.850;2022-12-11T04:52:30;17.77;;;6.47;;
3941;SDS011;1985;48.592;8.850;2022-12-11T04:54:56;20.42;;;7.57;;
3941;SDS011;1985;48.592;8.850;2022-12-11T04:57:21;18.05;;;6.00;;
3941;SDS011;1985;48.592;8.850;2022-12-11T04:59:47;17.13;;;5.93;;
3941;SDS011;1985;48.592;8.850;2022-12-11T05:02:13;18.77;;;7.63;;
3941;SDS011;1985;48.592;8.850;2022-12-11T05:04:39;18.30;;;6.40;;
3941;SDS011;1985;48.592;8.850;2022-12-11T05:07:05;21.35;;;6.53;;
3941;SDS011;1985;48.592;8.850;2022-12-11T05:09:31;20.42;;;7.43;;
3941;SDS011;1985;48.592;8.850;2022-12-11T05:11:57;18.35;;;5.90;;
3941;SDS011;1985;48.592;8.850;2022-12-11T05:14:22;19.17;;;6.50;;
3941;SDS011;1985;48.592;8.850;2022-12-11T05:16:48;19.17;;;5.53;;
3941;SDS011;1985;48.592;8.850;2022-12-11T05:19:14;18.67;;;6.20;;
3941;SDS011;1985;48.592;8.850;2022-12-11T05:21:39;17.77;;;6.00;;
3941;SDS011;1985;48.592;8.850;2022-12-11T05:24:05;16.57;;;5.77;;
3941;SDS011;1985;48.592;8.850;2022-12-11T05:26:31;17.17;;;6.60;;
3941;SDS011;1985;48.592;8.850;2022-12-11T05:28:57;17.27;;;6.77;;
3941;SDS011;1985;48.592;8.850;2022-12-11T05:31:23;18.27;;;6.00;;
3941;SDS011;1985;48.592;8.850;2022-12-11T05:33:51;18.43;;;5.87;;
3941;SDS011;1985;48.592;8.850;2022-12-11T05:36:27;20.67;;;6.00;;
3941;SDS011;1985;48.592;8.850;2022-12-11T05:38:56;21.42;;;6.72;;
3941;SDS011;1985;48.592;8.850;2022-12-11T05:41:22;17.83;;;5.90;;
3941;SDS011;1985;48.592;8.850;2022-12-11T05:43:50;15.95;;;5.90;;
3941;SDS011;1985;48.592;8.850;2022-12-11T05:46:20;17.77;;;5.53;;
3941;SDS011;1985;48.592;8.850;2022-12-11T05:48:48;15.63;;;5.45;;
3941;SDS011;1985;48.592;8.850;2022-12-11T05:51:16;17.33;;;5.90;;
3941;SDS011;1985;48.592;8.850;2022-12-11T05:53:42;18.52;;;6.10;;
3941;SDS011;1985;48.592;8.850;2022-12-11T05:56:10;18.00;;;6.03;;
3941;SDS011;1985;48.592;8.850;2022-12-11T05:59:03;17.35;;;6.05;;
3941;SDS011;1985;48.592;8.850;2022-12-11T06:03:57;17.20;;;5.90;;
3941;SDS011;1985;48.592;8.850;2022-12-11T06:06:24;17.85;;;6.20;;
3941;SDS011;1985;48.592;8.850;2022-12-11T06:08:54;17.30;;;5.75;;
3941;SDS011;1985;48.592;8.850;2022-12-11T06:11:21;20.60;;;6.95;;
3941;SDS011;1985;48.592;8.850;2022-12-11T06:13:47;15.60;;;5.88;;
3941;SDS011;1985;48.592;8.850;2022-12-11T06:16:13;15.77;;;6.32;;
3941;SDS011;1985;48.592;8.850;2022-12-11T06:18:40;17.83;;;6.70;;
3941;SDS011;1985;48.592;8.850;2022-12-11T06:23:48;20.13;;;7.15;;
3941;SDS011;1985;48.592;8.850;2022-12-11T06:26:15;17.77;;;5.68;;
3941;SDS011;1985;48.592;8.850;2022-12-11T06:28:42;17.10;;;5.82;;
3941;SDS011;1985;48.592;8.850;2022-12-11T06:31:08;16.70;;;6.00;;
3941;SDS011;1985;48.592;8.850;2022-12-11T06:33:34;14.07;;;5.10;;
3941;SDS011;1985;48.592;8.850;2022-12-11T06:36:00;18.50;;;6.50;;
3941;SDS011;1985;48.592;8.850;2022-12-11T06:38:30;17.52;;;5.97;;
3941;SDS011;1985;48.592;8.850;2022-12-11T06:40:57;16.60;;;5.60;;
3941;SDS011;1985;48.592;8.850;2022-12-11T06:43:23;15.00;;;5.40;;
3941;SDS011;1985;48.592;8.850;2022-12-11T06:45:49;17.92;;;6.38;;
3941;SDS011;1985;48.592;8.850;2022-12-11T06:48:15;17.02;;;6.18;;
3941;SDS011;1985;48.592;8.850;2022-12-11T06:50:41;17.35;;;5.20;;
3941;SDS011;1985;48.592;8.850;2022-12-11T06:53:06;19.60;;;6.60;;
3941;SDS011;1985;48.592;8.850;2022-12-11T06:55:34;18.92;;;6.22;;
3941;SDS011;1985;48.592;8.850;2022-12-11T06:58:00;17.08;;;6.38;;
3941;SDS011;1985;48.592;8.850;2022-12-11T07:00:26;18.83;;;6.40;;
3941;SDS011;1985;48.592;8.850;2022-12-11T07:02:51;16.70;;;5.70;;
3941;SDS011;1985;48.592;8.850;2022-12-11T07:05:17;19.05;;;7.20;;
3941;SDS011;1985;48.592;8.850;2022-12-11T07:07:43;19.83;;;7.13;;
3941;SDS011;1985;48.592;8.850;2022-12-11T07:10:09;16.65;;;6.07;;
3941;SDS011;1985;48.592;8.850;2022-12-11T07:12:35;21.02;;;7.07;;
3941;SDS011;1985;48.592;8.850;2022-12-11T07:15:01;22.10;;;8.00;;
3941;SDS011;1985;48.592;8.850;2022-12-11T07:17:27;22.58;;;10.18;;
3941;SDS011;1985;48.592;8.850;2022-12-11T07:19:54;21.50;;;7.97;;
3941;SDS011;1985;48.592;8.850;2022-12-11T07:22:20;19.50;;;8.65;;
3941;SDS011;1985;48.592;8.850;2022-12-11T07:24:45;18.20;;;7.65;;
3941;SDS011;1985;48.592;8.850;2022-12-11T07:27:11;19.75;;;7.43;;
3941;SDS011;1985;48.592;8.850;2022-12-11T07:29:37;17.63;;;6.75;;
3941;SDS011;1985;48.592;8.850;2022-12-11T07:32:02;18.60;;;7.40;;
3941;SDS011;1985;48.592;8.850;2022-12-11T07:34:28;21.13;;;7.70;;
3941;SDS011;1985;48.592;8.850;2022-12-11T07:36:54;17.60;;;6.00;;
3941;SDS011;1985;48.592;8.850;2022-12-11T07:39:19;19.70;;;7.15;;
3941;SDS011;1985;48.592;8.850;2022-12-11T07:41:45;19.57;;;7.73;;
3941;SDS011;1985;48.592;8.850;2022-12-11T07:44:11;18.83;;;6.72;;
3941;SDS011;1985;48.592;8.850;2022-12-11T07:46:37;21.05;;;7.68;;
3941;SDS011;1985;48.592;8.850;2022-12-11T07:49:04;18.73;;;7.22;;
3941;SDS011;1985;48.592;8.850;2022-12-11T07:51:31;20.92;;;8.00;;
3941;SDS011;1985;48.592;8.850;2022-12-11T07:54:10;18.60;;;6.53;;
3941;SDS011;1985;48.592;8.850;2022-12-11T07:56:40;16.00;;;5.88;;
3941;SDS011;1985;48.592;8.850;2022-12-11T07:59:07;16.70;;;6.35;;
3941;SDS011;1985;48.592;8.850;2022-12-11T08:01:33;21.37;;;7.13;;
3941;SDS011;1985;48.592;8.850;2022-12-11T08:04:00;18.90;;;7.70;;
3941;SDS011;1985;48.592;8.850;2022-12-11T08:06:28;19.00;;;6.75;;
3941;SDS011;1985;48.592;8.850;2022-12-11T08:08:56;20.80;;;7.00;;
3941;SDS011;1985;48.592;8.850;2022-12-11T08:11:22;19.90;;;7.57;;
3941;SDS011;1985;48.592;8.850;2022-12-11T08:13:49;18.33;;;7.15;;
3941;SDS011;1985;48.592;8.850;2022-12-11T08:16:15;18.83;;;6.55;;
3941;SDS011;1985;48.592;8.850;2022-12-11T08:18:41;23.10;;;7.55;;
3941;SDS011;1985;48.592;8.850;2022-12-11T08:21:09;18.52;;;6.80;;
3941;SDS011;1985;48.592;8.850;2022-12-11T08:23:35;18.15;;;7.40;;
3941;SDS011;1985;48.592;8.850;2022-12-11T08:26:02;18.97;;;7.77;;
3941;SDS011;1985;48.592;8.850;2022-12-11T08:28:28;22.60;;;8.30;;
3941;SDS011;1985;48.592;8.850;2022-12-11T08:30:54;23.40;;;8.82;;
3941;SDS011;1985;48.592;8.850;2022-12-11T08:33:20;22.40;;;7.35;;
3941;SDS011;1985;48.592;8.850;2022-12-11T08:35:46;18.23;;;7.07;;
3941;SDS011;1985;48.592;8.850;2022-12-11T08:38:11;19.98;;;7.10;;
3941;SDS011;1985;48.592;8.850;2022-12-11T08:40:37;20.90;;;7.27;;
3941;SDS011;1985;48.592;8.850;2022-12-11T08:43:03;21.13;;;8.30;;
3941;SDS011;1985;48.592;8.850;2022-12-11T08:45:28;23.10;;;7.45;;
3941;SDS011;1985;48.592;8.850;2022-12-11T08:47:54;20.42;;;7.90;;
3941;SDS011;1985;48.592;8.850;2022-12-11T08:50:19;19.70;;;7.80;;
3941;SDS011;1985;48.592;8.850;2022-12-11T08:52:45;21.40;;;8.63;;
3941;SDS011;1985;48.592;8.850;2022-12-11T08:55:11;22.47;;;7.40;;
3941;SDS011;1985;48.592;8.850;2022-12-11T08:57:36;18.73;;;6.95;;
3941;SDS011;1985;48.592;8.850;2022-12-11T09:00:04;17.75;;;6.60;;
3941;SDS011;1985;48.592;8.850;2022-12-11T09:02:36;21.35;;;7.95;;
3941;SDS011;1985;48.592;8.850;2022-12-11T09:05:02;18.55;;;6.72;;
3941;SDS011;1985;48.592;8.850;2022-12-11T09:07:31;19.60;;;7.27;;
3941;SDS011;1985;48.592;8.850;2022-12-11T09:10:01;20.02;;;7.75;;
3941;SDS011;1985;48.592;8.850;2022-12-11T09:12:27;20.65;;;8.45;;
3941;SDS011;1985;48.592;8.850;2022-12-11T09:14:53;20.80;;;8.30;;
3941;SDS011;1985;48.592;8.850;2022-12-11T09:17:19;21.13;;;8.33;;
3941;SDS011;1985;48.592;8.850;2022-12-11T09:19:44;18.47;;;7.47;;
3941;SDS011;1985;48.592;8.850;2022-12-11T09:22:10;22.50;;;8.23;;
3941;SDS011;1985;48.592;8.850;2022-12-11T09:24:36;19.83;;;8.10;;
3941;SDS011;1985;48.592;8.850;2022-12-11T09:27:03;22.15;;;8.07;;
3941;SDS011;1985;48.592;8.850;2022-12-11T09:29:30;19.75;;;7.03;;
3941;SDS011;1985;48.592;8.850;2022-12-11T09:31:56;20.73;;;8.60;;
3941;SDS011;1985;48.592;8.850;2022-12-11T09:34:21;23.30;;;8.77;;
3941;SDS011;1985;48.592;8.850;2022-12-11T09:36:47;22.67;;;8.50;;
3941;SDS011;1985;48.592;8.850;2022-12-11T09:39:13;22.08;;;8.35;;
3941;SDS011;1985;48.592;8.850;2022-12-11T09:47:15;19.73;;;7.53;;
3941;SDS011;1985;48.592;8.850;2022-12-11T09:49:46;21.25;;;7.68;;
3941;SDS011;1985;48.592;8.850;2022-12-11T09:54:59;19.13;;;7.80;;
3941;SDS011;1985;48.592;8.850;2022-12-11T10:00:35;21.02;;;8.07;;
3941;SDS011;1985;48.592;8.850;2022-12-11T10:06:02;25.23;;;10.13;;
3941;SDS011;1985;48.592;8.850;2022-12-11T10:08:51;22.38;;;8.55;;
3941;SDS011;1985;48.592;8.850;2022-12-11T10:17:19;19.88;;;8.30;;
3941;SDS011;1985;48.592;8.850;2022-12-11T10:19:52;22.00;;;7.95;;
3941;SDS011;1985;48.592;8.850;2022-12-11T10:22:22;20.87;;;8.23;;
3941;SDS011;1985;48.592;8.850;2022-12-11T10:25:25;22.98;;;8.68;;
3941;SDS011;1985;48.592;8.850;2022-12-11T10:27:45;21.90;;;8.40;;
3941;SDS011;1985;48.592;8.850;2022-12-11T10:37:55;20.95;;;7.95;;
3941;SDS011;1985;48.592;8.850;2022-12-11T10:40:30;20.60;;;8.20;;
3941;SDS011;1985;48.592;8.850;2022-12-11T10:42:58;19.92;;;7.88;;
3941;SDS011;1985;48.592;8.850;2022-12-11T10:45:23;18.60;;;7.90;;
3941;SDS011;1985;48.592;8.850;2022-12-11T10:47:49;20.30;;;7.60;;
3941;SDS011;1985;48.592;8.850;2022-12-11T10:50:25;24.52;;;7.72;;
3941;SDS011;1985;48.592;8.850;2022-12-11T10:52:51;19.10;;;7.27;;
3941;SDS011;1985;48.592;8.850;2022-12-11T10:55:24;22.63;;;8.00;;
3941;SDS011;1985;48.592;8.850;2022-12-11T10:58:00;21.30;;;7.65;;
3941;SDS011;1985;48.592;8.850;2022-12-11T11:00:38;23.63;;;8.23;;
3941;SDS011;1985;48.592;8.850;2022-12-11T11:03:16;22.53;;;7.90;;
3941;SDS011;1985;48.592;8.850;2022-12-11T11:06:00;20.52;;;7.53;;
3941;SDS011;1985;48.592;8.850;2022-12-11T11:08:27;23.73;;;9.15;;
3941;SDS011;1985;48.592;8.850;2022-12-11T11:11:12;20.50;;;8.43;;
3941;SDS011;1985;48.592;8.850;2022-12-11T11:13:46;22.60;;;8.05;;
3941;SDS011;1985;48.592;8.850;2022-12-11T11:16:12;25.63;;;9.60;;
3941;SDS011;1985;48.592;8.850;2022-12-11T11:18:41;25.30;;;9.00;;
3941;SDS011;1985;48.592;8.850;2022-12-11T11:21:16;28.15;;;9.30;;
3941;SDS011;1985;48.592;8.850;2022-12-11T11:23:44;24.42;;;8.80;;
3941;SDS011;1985;48.592;8.850;2022-12-11T11:26:10;18.27;;;7.55;;
3941;SDS011;1985;48.592;8.850;2022-12-11T11:28:37;22.58;;;7.82;;
3941;SDS011;1985;48.592;8.850;2022-12-11T11:31:10;21.17;;;8.02;;
3941;SDS011;1985;48.592;8.850;2022-12-11T11:33:44;24.23;;;8.18;;
3941;SDS011;1985;48.592;8.850;2022-12-11T11:36:22;28.40;;;9.57;;
3941;SDS011;1985;48.592;8.850;2022-12-11T11:44:18;23.08;;;8.40;;
3941;SDS011;1985;48.592;8.850;2022-12-11T11:46:54;21.83;;;8.65;;
3941;SDS011;1985;48.592;8.850;2022-12-11T11:49:23;20.48;;;8.07;;
3941;SDS011;1985;48.592;8.850;2022-12-11T11:57:04;23.08;;;9.02;;
3941;SDS011;1985;48.592;8.850;2022-12-11T11:59:48;22.13;;;9.05;;
3941;SDS011;1985;48.592;8.850;2022-12-11T12:02:19;23.35;;;9.32;;
3941;SDS011;1985;48.592;8.850;2022-12-11T12:04:45;21.75;;;8.68;;
3941;SDS011;1985;48.592;8.850;2022-12-11T12:07:32;22.25;;;8.93;;
3941;SDS011;1985;48.592;8.850;2022-12-11T12:10:21;27.33;;;8.90;;
3941;SDS011;1985;48.592;8.850;2022-12-11T12:15:53;26.17;;;10.35;;
3941;SDS011;1985;48.592;8.850;2022-12-11T12:21:20;25.05;;;9.82;;
3941;SDS011;1985;48.592;8.850;2022-12-11T12:24:01;22.08;;;8.88;;
3941;SDS011;1985;48.592;8.850;2022-12-11T12:26:52;32.33;;;9.63;;
3941;SDS011;1985;48.592;8.850;2022-12-11T12:30:21;22.50;;;8.45;;
3941;SDS011;1985;48.592;8.850;2022-12-11T12:35:34;20.80;;;8.80;;
3941;SDS011;1985;48.592;8.850;2022-12-11T12:43:25;24.17;;;9.18;;
3941;SDS011;1985;48.592;8.850;2022-12-11T12:48:28;22.80;;;9.88;;
3941;SDS011;1985;48.592;8.850;2022-12-11T12:50:54;25.73;;;10.82;;
3941;SDS011;1985;48.592;8.850;2022-12-11T12:53:25;22.95;;;8.77;;
3941;SDS011;1985;48.592;8.850;2022-12-11T12:55:54;23.77;;;8.35;;
3941;SDS011;1985;48.592;8.850;2022-12-11T13:01:17;20.70;;;8.27;;
3941;SDS011;1985;48.592;8.850;2022-12-11T13:03:57;24.02;;;8.70;;
3941;SDS011;1985;48.592;8.850;2022-12-11T13:06:36;23.05;;;9.77;;
3941;SDS011;1985;48.592;8.850;2022-12-11T13:09:17;28.90;;;9.27;;
3941;SDS011;1985;48.592;8.850;2022-12-11T13:11:48;25.40;;;9.80;;
3941;SDS011;1985;48.592;8.850;2022-12-11T13:16:47;40.40;;;14.90;;
3941;SDS011;1985;48.592;8.850;2022-12-11T13:24:27;30.07;;;13.00;;
3941;SDS011;1985;48.592;8.850;2022-12-11T13:26:55;39.35;;;14.40;;
3941;SDS011;1985;48.592;8.850;2022-12-11T13:29:39;49.47;;;19.40;;
3941;SDS011;1985;48.592;8.850;2022-12-11T13:34:38;26.42;;;10.23;;
3941;SDS011;1985;48.592;8.850;2022-12-11T13:37:05;43.28;;;15.93;;
3941;SDS011;1985;48.592;8.850;2022-12-11T13:39:45;51.17;;;18.05;;
3941;SDS011;1985;48.592;8.850;2022-12-11T13:45:05;23.67;;;9.18;;
3941;SDS011;1985;48.592;8.850;2022-12-11T13:47:41;21.38;;;8.70;;
3941;SDS011;1985;48.592;8.850;2022-12-11T13:50:19;30.10;;;9.73;;
3941;SDS011;1985;48.592;8.850;2022-12-11T13:52:55;26.30;;;11.50;;
3941;SDS011;1985;48.592;8.850;2022-12-11T13:55:23;27.77;;;10.55;;
3941;SDS011;1985;48.592;8.850;2022-12-11T13:57:51;20.65;;;8.88;;
3941;SDS011;1985;48.592;8.850;2022-12-11T14:00:24;21.77;;;8.98;;
3941;SDS011;1985;48.592;8.850;2022-12-11T14:02:55;25.33;;;8.93;;
3941;SDS011;1985;48.592;8.850;2022-12-11T14:05:22;24.50;;;8.80;;
3941;SDS011;1985;48.592;8.850;2022-12-11T14:07:49;21.77;;;8.05;;
3941;SDS011;1985;48.592;8.850;2022-12-11T14:10:18;24.85;;;8.90;;
3941;SDS011;1985;48.592;8.850;2022-12-11T14:13:11;27.33;;;9.57;;
3941;SDS011;1985;48.592;8.850;2022-12-11T14:15:41;24.02;;;9.00;;
3941;SDS011;1985;48.592;8.850;2022-12-11T14:18:12;23.73;;;9.30;;
3941;SDS011;1985;48.592;8.850;2022-12-11T14:20:42;24.90;;;8.53;;
3941;SDS011;1985;48.592;8.850;2022-12-11T14:23:24;23.37;;;9.77;;
3941;SDS011;1985;48.592;8.850;2022-12-11T14:28:22;89.20;;;36.30;;
3941;SDS011;1985;48.592;8.850;2022-12-11T14:30:51;61.45;;;25.38;;
3941;SDS011;1985;48.592;8.850;2022-12-11T14:33:20;42.25;;;16.65;;
3941;SDS011;1985;48.592;8.850;2022-12-11T14:35:48;24.27;;;10.43;;
3941;SDS011;1985;48.592;8.850;2022-12-11T14:38:19;30.50;;;9.90;;
3941;SDS011;1985;48.592;8.850;2022-12-11T14:40:51;25.35;;;9.35;;
3941;SDS011;1985;48.592;8.850;2022-12-11T14:43:27;21.88;;;9.05;;
3941;SDS011;1985;48.592;8.850;2022-12-11T14:45:57;24.75;;;9.35;;
3941;SDS011;1985;48.592;8.850;2022-12-11T14:48:31;20.77;;;8.40;;
3941;SDS011;1985;48.592;8.850;2022-12-11T14:51:03;24.88;;;9.77;;
3941;SDS011;1985;48.592;8.850;2022-12-11T14:53:33;22.80;;;8.80;;
3941;SDS011;1985;48.592;8.850;2022-12-11T14:56:04;22.08;;;8.75;;
3941;SDS011;1985;48.592;8.850;2022-12-11T14:58:31;22.90;;;10.00;;
3941;SDS011;1985;48.592;8.850;2022-12-11T15:01:05;21.95;;;8.48;;
3941;SDS011;1985;48.592;8.850;2022-12-11T15:03:44;25.58;;;9.48;;
3941;SDS011;1985;48.592;8.850;2022-12-11T15:06:22;23.93;;;9.90;;
3941;SDS011;1985;48.592;8.850;2022-12-11T15:09:08;25.23;;;10.00;;
3941;SDS011;1985;48.592;8.850;2022-12-11T15:11:41;22.67;;;9.40;;
3941;SDS011;1985;48.592;8.850;2022-12-11T15:14:08;26.35;;;9.98;;
3941;SDS011;1985;48.592;8.850;2022-12-11T15:16:37;26.02;;;10.40;;
3941;SDS011;1985;48.592;8.850;2022-12-11T15:19:04;28.90;;;11.68;;
3941;SDS011;1985;48.592;8.850;2022-12-11T15:21:31;24.67;;;10.30;;
3941;SDS011;1985;48.592;8.850;2022-12-11T15:24:02;28.10;;;11.75;;
3941;SDS011;1985;48.592;8.850;2022-12-11T15:26:33;26.27;;;10.23;;
3941;SDS011;1985;48.592;8.850;2022-12-11T15:29:02;28.15;;;10.30;;
3941;SDS011;1985;48.592;8.850;2022-12-11T15:31:31;30.15;;;13.13;;
3941;SDS011;1985;48.592;8.850;2022-12-11T15:33:59;32.90;;;12.60;;
3941;SDS011;1985;48.592;8.850;2022-12-11T15:36:34;33.80;;;13.23;;
3941;SDS011;1985;48.592;8.850;2022-12-11T15:39:01;27.55;;;11.00;;
3941;SDS011;1985;48.592;8.850;2022-12-11T15:41:29;31.43;;;11.80;;
3941;SDS011;1985;48.592;8.850;2022-12-11T15:43:59;32.90;;;13.15;;
3941;SDS011;1985;48.592;8.850;2022-12-11T15:46:28;26.27;;;11.27;;
3941;SDS011;1985;48.592;8.850;2022-12-11T15:48:54;27.50;;;10.55;;
3941;SDS011;1985;48.592;8.850;2022-12-11T15:51:21;27.88;;;13.05;;
3941;SDS011;1985;48.592;8.850;2022-12-11T15:53:47;30.27;;;12.60;;
3941;SDS011;1985;48.592;8.850;2022-12-11T15:56:16;27.67;;;10.90;;
3941;SDS011;1985;48.592;8.850;2022-12-11T15:58:43;27.40;;;10.38;;
3941;SDS011;1985;48.592;8.850;2022-12-11T16:01:10;28.05;;;10.60;;
3941;SDS011;1985;48.592;8.850;2022-12-11T16:03:36;28.80;;;11.80;;
3941;SDS011;1985;48.592;8.850;2022-12-11T16:06:01;28.13;;;13.10;;
3941;SDS011;1985;48.592;8.850;2022-12-11T16:08:27;29.85;;;11.88;;
3941;SDS011;1985;48.592;8.850;2022-12-11T16:10:53;28.60;;;11.07;;
3941;SDS011;1985;48.592;8.850;2022-12-11T16:13:19;25.60;;;10.50;;
3941;SDS011;1985;48.592;8.850;2022-12-11T16:15:45;25.77;;;10.97;;
3941;SDS011;1985;48.592;8.850;2022-12-11T16:18:17;27.60;;;11.30;;
3941;SDS011;1985;48.592;8.850;2022-12-11T16:20:44;26.42;;;11.55;;
3941;SDS011;1985;48.592;8.850;2022-12-11T16:23:11;26.15;;;10.95;;
3941;SDS011;1985;48.592;8.850;2022-12-11T16:25:37;26.20;;;10.23;;
3941;SDS011;1985;48.592;8.850;2022-12-11T16:28:04;24.50;;;11.73;;
3941;SDS011;1985;48.592;8.850;2022-12-11T16:30:32;30.52;;;13.15;;
3941;SDS011;1985;48.592;8.850;2022-12-11T16:32:59;31.97;;;14.60;;
3941;SDS011;1985;48.592;8.850;2022-12-11T16:35:25;29.50;;;12.93;;
3941;SDS011;1985;48.592;8.850;2022-12-11T16:37:53;24.58;;;10.85;;
3941;SDS011;1985;48.592;8.850;2022-12-11T16:40:20;27.97;;;12.57;;
3941;SDS011;1985;48.592;8.850;2022-12-11T16:42:45;28.10;;;11.00;;
3941;SDS011;1985;48.592;8.850;2022-12-11T16:45:15;21.50;;;8.95;;
3941;SDS011;1985;48.592;8.850;2022-12-11T16:47:42;25.10;;;10.00;;
3941;SDS011;1985;48.592;8.850;2022-12-11T16:50:08;25.20;;;9.73;;
3941;SDS011;1985;48.592;8.850;2022-12-11T16:52:35;20.70;;;8.88;;
3941;SDS011;1985;48.592;8.850;2022-12-11T16:55:01;22.07;;;8.30;;
3941;SDS011;1985;48.592;8.850;2022-12-11T16:57:27;23.92;;;9.35;;
3941;SDS011;1985;48.592;8.850;2022-12-11T16:59:52;25.45;;;10.23;;
3941;SDS011;1985;48.592;8.850;2022-12-11T17:02:18;28.20;;;11.63;;
3941;SDS011;1985;48.592;8.850;2022-12-11T17:04:44;28.10;;;11.27;;